Time;durP1;ratioP1;P1;durP2;ratioP2;P2;SDS_P1;SDS_P2;PMS_P1;PMS_P2;Temp;Humidity;BMP_temperature;BMP_pressure;BME280_temperature;BME280_humidity;BME280_pressure;Samples;Min_cycle;Max_cycle;Signal;HPM_P1;HPM_P2
2024/01/11 00:01:14;;;;;;;26.60;11.07;;;;;;;;;;4970268;28;20058;-66
2024/01/11 00:03:42;;;;;;;24.42;11.13;;;;;;;;;;4968871;28;20062;-67
2024/01/11 00:06:09;;;;;;;25.58;10.43;;;;;;;;;;4970126;28;20150;-66
2024/01/11 00:08:36;;;;;;;27.15;11.45;;;;;;;;;;4968515;28;20129;-66
2024/01/11 00:11:05;;;;;;;27.65;10.75;;;;;;;;;;4968725;28;20498;-67
2024/01/11 00:13:32;;;;;;;25.70;11.10;;;;;;;;;;4967312;28;20069;-66
2024/01/11 00:15:59;;;;;;;28.65;11.10;;;;;;;;;;4967480;28;20043;-66
2024/01/11 00:18:26;;;;;;;33.15;13.82;;;;;;;;;;4969675;28;20053;-66
2024/01/11 00:20:54;;;;;;;27.83;12.75;;;;;;;;;;4971292;28;20426;-66
2024/01/11 00:23:21;;;;;;;28.63;12.68;;;;;;;;;;4966024;28;20061;-67
2024/01/11 00:25:48;;;;;;;32.97;12.98;;;;;;;;;;4966306;28;20057;-66
2024/01/11 00:28:17;;;;;;;30.20;12.73;;;;;;;;;;4969065;28;20752;-66
2024/01/11 00:30:44;;;;;;;26.35;12.52;;;;;;;;;;4965449;28;20482;-67
2024/01/11 00:33:12;;;;;;;29.30;11.93;;;;;;;;;;4969530;28;20403;-67
2024/01/11 00:35:39;;;;;;;28.55;11.88;;;;;;;;;;4968014;28;20051;-67
2024/01/11 00:38:06;;;;;;;29.08;11.50;;;;;;;;;;4966907;28;20069;-66
2024/01/11 00:40:33;;;;;;;26.98;12.05;;;;;;;;;;4967392;28;20051;-66
2024/01/11 00:43:01;;;;;;;30.85;12.35;;;;;;;;;;4964413;28;20062;-66
2024/01/11 00:45:29;;;;;;;29.17;11.18;;;;;;;;;;4970549;28;20070;-66
2024/01/11 00:47:56;;;;;;;29.35;12.43;;;;;;;;;;4971299;28;20053;-68
2024/01/11 00:50:24;;;;;;;29.80;12.80;;;;;;;;;;4972145;28;20046;-67
2024/01/11 00:52:51;;;;;;;28.67;12.57;;;;;;;;;;4972752;28;20055;-66
2024/01/11 00:55:18;;;;;;;34.90;14.18;;;;;;;;;;4968954;28;20482;-66
2024/01/11 00:57:45;;;;;;;32.67;13.02;;;;;;;;;;4971469;28;20058;-67
2024/01/11 01:00:14;;;;;;;33.88;13.60;;;;;;;;;;4969512;28;20047;-66
2024/01/11 01:02:43;;;;;;;31.17;13.73;;;;;;;;;;4973079;28;20054;-68
2024/01/11 01:05:10;;;;;;;35.63;14.48;;;;;;;;;;4971212;28;20042;-66
2024/01/11 01:07:37;;;;;;;31.65;13.45;;;;;;;;;;4971898;28;20058;-66
2024/01/11 01:10:05;;;;;;;35.03;13.90;;;;;;;;;;4970774;28;20054;-66
2024/01/11 01:12:32;;;;;;;34.20;13.93;;;;;;;;;;4968712;28;20047;-66
2024/01/11 01:15:00;;;;;;;36.72;14.20;;;;;;;;;;4971685;28;20055;-67
2024/01/11 01:17:27;;;;;;;34.00;14.65;;;;;;;;;;4977289;28;20133;-66
2024/01/11 01:19:55;;;;;;;33.30;13.93;;;;;;;;;;4970003;28;20520;-65
2024/01/11 01:22:23;;;;;;;38.00;14.88;;;;;;;;;;4966451;28;20394;-66
2024/01/11 01:24:50;;;;;;;33.70;13.45;;;;;;;;;;4972310;28;20542;-66
2024/01/11 01:27:17;;;;;;;35.53;14.35;;;;;;;;;;4967221;28;20498;-67
2024/01/11 01:29:45;;;;;;;35.60;14.18;;;;;;;;;;4970476;28;20097;-67
2024/01/11 01:32:12;;;;;;;36.15;15.20;;;;;;;;;;4969841;28;20067;-66
2024/01/11 01:34:39;;;;;;;37.65;14.70;;;;;;;;;;4972139;28;20047;-67
2024/01/11 01:37:08;;;;;;;36.92;14.45;;;;;;;;;;4968368;28;20054;-66
2024/01/11 01:39:38;;;;;;;40.72;15.15;;;;;;;;;;4971842;28;20051;-68
2024/01/11 01:42:06;;;;;;;35.60;13.73;;;;;;;;;;4968500;28;20062;-66
2024/01/11 01:44:33;;;;;;;32.03;13.98;;;;;;;;;;4972257;28;20121;-66
2024/01/11 01:47:01;;;;;;;39.55;15.55;;;;;;;;;;4969586;28;20129;-66
2024/01/11 01:49:28;;;;;;;38.92;15.07;;;;;;;;;;4971970;28;20494;-66
2024/01/11 01:51:56;;;;;;;35.47;15.48;;;;;;;;;;4969695;28;20050;-66
2024/01/11 01:54:25;;;;;;;36.03;15.80;;;;;;;;;;4968761;28;20054;-66
2024/01/11 01:56:53;;;;;;;37.92;16.20;;;;;;;;;;4969770;28;20050;-66
2024/01/11 01:59:21;;;;;;;34.78;14.70;;;;;;;;;;4971031;28;20046;-67
2024/01/11 02:01:48;;;;;;;34.60;14.43;;;;;;;;;;4969606;28;20541;-66
2024/01/11 02:04:16;;;;;;;39.28;15.43;;;;;;;;;;4972186;28;20053;-66
2024/01/11 02:06:43;;;;;;;35.33;14.50;;;;;;;;;;4969036;28;20047;-69
2024/01/11 02:09:11;;;;;;;34.40;14.70;;;;;;;;;;4965944;28;20047;-66
2024/01/11 02:11:40;;;;;;;36.17;15.10;;;;;;;;;;4970371;28;20054;-66
2024/01/11 02:14:07;;;;;;;35.03;14.88;;;;;;;;;;4975357;28;20059;-69
2024/01/11 02:16:34;;;;;;;35.63;14.95;;;;;;;;;;4971475;28;20051;-66
2024/01/11 02:19:02;;;;;;;34.90;14.57;;;;;;;;;;4970561;28;20055;-66
2024/01/11 02:21:29;;;;;;;33.38;14.70;;;;;;;;;;4970706;28;20062;-66
2024/01/11 02:24:03;;;;;;;35.45;15.15;;;;;;;;;;4969083;28;20422;-67
2024/01/11 02:26:30;;;;;;;36.38;15.25;;;;;;;;;;4969762;28;20050;-66
2024/01/11 02:28:58;;;;;;;37.08;15.52;;;;;;;;;;4970295;28;20050;-66
2024/01/11 02:31:25;;;;;;;38.25;14.57;;;;;;;;;;4971161;28;20069;-66
2024/01/11 02:33:53;;;;;;;34.50;14.65;;;;;;;;;;4970058;28;20137;-67
2024/01/11 02:36:21;;;;;;;32.90;14.02;;;;;;;;;;4969795;28;20126;-69
2024/01/11 02:38:49;;;;;;;34.28;13.82;;;;;;;;;;4969739;28;20414;-66
2024/01/11 02:41:18;;;;;;;41.13;15.10;;;;;;;;;;4970621;28;20051;-68
2024/01/11 02:43:48;;;;;;;39.28;14.68;;;;;;;;;;4968511;28;20058;-66
2024/01/11 02:46:18;;;;;;;39.92;15.45;;;;;;;;;;4965974;28;20152;-66
2024/01/11 02:48:45;;;;;;;35.85;14.40;;;;;;;;;;4969475;28;20129;-66
2024/01/11 02:51:13;;;;;;;37.58;15.32;;;;;;;;;;4970691;28;20058;-67
2024/01/11 02:53:40;;;;;;;36.42;14.65;;;;;;;;;;4970882;28;20077;-66
2024/01/11 02:56:07;;;;;;;30.63;14.02;;;;;;;;;;4966920;28;20062;-68
2024/01/11 02:58:36;;;;;;;40.38;15.65;;;;;;;;;;4968852;28;20046;-66
2024/01/11 03:01:03;;;;;;;36.45;14.75;;;;;;;;;;4969854;28;20058;-66
2024/01/11 03:03:30;;;;;;;37.78;15.38;;;;;;;;;;4970520;28;20050;-65
2024/01/11 03:05:57;;;;;;;41.33;15.57;;;;;;;;;;4970341;28;20424;-66
2024/01/11 03:08:25;;;;;;;39.33;15.10;;;;;;;;;;4970694;28;20053;-66
2024/01/11 03:10:52;;;;;;;37.00;15.90;;;;;;;;;;4974966;28;20560;-66
2024/01/11 03:13:19;;;;;;;38.65;15.68;;;;;;;;;;4967459;28;20050;-66
2024/01/11 03:15:48;;;;;;;39.15;15.45;;;;;;;;;;4970307;28;20051;-66
2024/01/11 03:18:15;;;;;;;38.90;15.23;;;;;;;;;;4969496;28;20520;-66
2024/01/11 03:20:42;;;;;;;35.35;15.32;;;;;;;;;;4969958;28;20053;-67
2024/01/11 03:23:10;;;;;;;40.20;15.02;;;;;;;;;;4964938;28;20051;-66
2024/01/11 03:25:37;;;;;;;40.47;14.93;;;;;;;;;;4966233;28;20061;-67
2024/01/11 03:28:04;;;;;;;40.35;15.38;;;;;;;;;;4968248;28;20086;-66
2024/01/11 03:30:32;;;;;;;36.67;15.88;;;;;;;;;;4968971;28;20046;-66
2024/01/11 03:33:00;;;;;;;41.47;15.73;;;;;;;;;;4964176;28;20526;-66
2024/01/11 03:35:27;;;;;;;42.33;16.52;;;;;;;;;;4961046;28;20053;-66
2024/01/11 03:37:55;;;;;;;39.13;15.75;;;;;;;;;;4963790;28;20065;-68
2024/01/11 03:40:22;;;;;;;41.55;15.15;;;;;;;;;;4968811;28;20051;-65
2024/01/11 03:42:49;;;;;;;41.83;15.52;;;;;;;;;;4963703;28;20537;-67
2024/01/11 03:45:19;;;;;;;46.80;17.55;;;;;;;;;;4963425;28;20059;-66
2024/01/11 03:47:46;;;;;;;41.38;15.70;;;;;;;;;;4964777;28;20069;-65
2024/01/11 03:50:15;;;;;;;39.03;15.57;;;;;;;;;;4969866;28;20050;-66
2024/01/11 03:52:44;;;;;;;42.05;16.38;;;;;;;;;;4967404;28;20057;-65
2024/01/11 03:55:11;;;;;;;38.72;15.07;;;;;;;;;;4968502;28;20046;-66
2024/01/11 03:57:38;;;;;;;43.72;17.10;;;;;;;;;;4967647;28;20050;-66
2024/01/11 04:00:06;;;;;;;40.45;16.48;;;;;;;;;;4966272;28;20047;-67
2024/01/11 04:02:33;;;;;;;45.75;15.75;;;;;;;;;;4964917;28;20054;-66
2024/01/11 04:05:00;;;;;;;38.50;15.77;;;;;;;;;;4971041;28;20525;-66
2024/01/11 04:07:29;;;;;;;39.08;16.00;;;;;;;;;;4969974;28;20066;-66
2024/01/11 04:09:56;;;;;;;36.60;15.95;;;;;;;;;;4968661;28;20054;-67
2024/01/11 04:12:23;;;;;;;40.55;15.20;;;;;;;;;;4970048;28;20513;-67
2024/01/11 04:14:51;;;;;;;37.85;15.18;;;;;;;;;;4968024;28;20051;-66
2024/01/11 04:17:18;;;;;;;46.15;16.73;;;;;;;;;;4969416;28;20137;-66
2024/01/11 04:19:45;;;;;;;43.20;16.40;;;;;;;;;;4967975;28;20050;-67
2024/01/11 04:22:12;;;;;;;36.03;15.05;;;;;;;;;;4968466;28;20061;-67
2024/01/11 04:24:42;;;;;;;43.50;15.93;;;;;;;;;;4967941;28;20057;-66
2024/01/11 04:27:09;;;;;;;43.05;16.10;;;;;;;;;;4968956;28;20061;-66
2024/01/11 04:29:36;;;;;;;39.80;15.98;;;;;;;;;;4968539;28;20043;-67
2024/01/11 04:32:04;;;;;;;37.60;15.55;;;;;;;;;;4967251;28;20065;-66
2024/01/11 04:34:31;;;;;;;40.75;16.38;;;;;;;;;;4968882;28;20057;-66
2024/01/11 04:36:59;;;;;;;46.85;16.60;;;;;;;;;;4966696;28;20780;-66
2024/01/11 04:39:29;;;;;;;39.13;16.33;;;;;;;;;;4968691;28;20046;-67
2024/01/11 04:41:57;;;;;;;41.03;16.25;;;;;;;;;;4967405;28;20071;-67
2024/01/11 04:44:25;;;;;;;41.08;16.25;;;;;;;;;;4969147;28;20050;-68
2024/01/11 04:46:52;;;;;;;41.35;16.17;;;;;;;;;;4967735;28;20058;-66
2024/01/11 04:49:19;;;;;;;38.58;16.13;;;;;;;;;;4968564;28;20057;-66
2024/01/11 04:51:46;;;;;;;43.47;16.52;;;;;;;;;;4968548;28;20407;-67
2024/01/11 04:54:13;;;;;;;39.25;16.88;;;;;;;;;;4967316;28;20043;-67
2024/01/11 04:56:41;;;;;;;39.75;16.77;;;;;;;;;;4969068;28;20627;-67
2024/01/11 04:59:09;;;;;;;43.83;17.50;;;;;;;;;;4968037;28;20122;-67
2024/01/11 05:01:37;;;;;;;41.03;16.63;;;;;;;;;;4966630;28;20118;-67
2024/01/11 05:04:06;;;;;;;43.80;17.70;;;;;;;;;;4965415;28;20056;-67
2024/01/11 05:06:34;;;;;;;49.67;18.02;;;;;;;;;;4969510;28;20447;-66
2024/01/11 05:09:01;;;;;;;45.22;17.85;;;;;;;;;;4967537;28;20055;-67
2024/01/11 05:11:29;;;;;;;43.83;17.27;;;;;;;;;;4964320;28;20106;-66
2024/01/11 05:13:56;;;;;;;44.63;17.55;;;;;;;;;;4967399;28;20058;-67
2024/01/11 05:16:25;;;;;;;43.92;18.83;;;;;;;;;;4968532;28;20051;-67
2024/01/11 05:18:52;;;;;;;45.25;18.20;;;;;;;;;;4966930;28;20055;-66
2024/01/11 05:21:20;;;;;;;44.60;16.90;;;;;;;;;;4968035;28;20059;-68
2024/01/11 05:23:48;;;;;;;42.38;17.67;;;;;;;;;;4966773;28;20054;-68
2024/01/11 05:26:16;;;;;;;43.75;17.95;;;;;;;;;;4969576;28;20094;-67
2024/01/11 05:28:43;;;;;;;41.13;17.63;;;;;;;;;;4968097;28;20489;-69
2024/01/11 05:31:11;;;;;;;38.22;16.77;;;;;;;;;;4971427;28;20101;-67
2024/01/11 05:33:40;;;;;;;46.40;17.40;;;;;;;;;;4971397;28;20050;-67
2024/01/11 05:36:07;;;;;;;38.95;16.45;;;;;;;;;;4971975;28;20055;-66
2024/01/11 05:38:35;;;;;;;44.38;17.17;;;;;;;;;;4970707;28;20043;-66
2024/01/11 05:41:02;;;;;;;41.88;16.70;;;;;;;;;;4971971;28;20051;-66
2024/01/11 05:43:30;;;;;;;40.53;16.95;;;;;;;;;;4970281;28;20046;-67
2024/01/11 05:45:57;;;;;;;39.85;16.98;;;;;;;;;;4971681;28;20055;-68
2024/01/11 05:48:25;;;;;;;43.92;17.05;;;;;;;;;;4969299;28;21263;-66
2024/01/11 05:50:54;;;;;;;38.35;16.38;;;;;;;;;;4970058;28;20055;-67
2024/01/11 05:53:21;;;;;;;40.35;16.88;;;;;;;;;;4969963;28;20245;-67
2024/01/11 05:55:48;;;;;;;45.50;18.10;;;;;;;;;;4971079;28;20081;-68
2024/01/11 05:58:15;;;;;;;42.75;18.02;;;;;;;;;;4966268;28;20072;-67
2024/01/11 06:00:43;;;;;;;39.90;16.92;;;;;;;;;;4969984;28;20039;-67
2024/01/11 06:03:10;;;;;;;45.47;18.10;;;;;;;;;;4964637;28;20066;-66
2024/01/11 06:05:37;;;;;;;44.45;18.67;;;;;;;;;;4966511;28;20062;-67
2024/01/11 06:08:07;;;;;;;44.40;17.38;;;;;;;;;;4968426;28;20382;-67
2024/01/11 06:10:35;;;;;;;41.47;17.35;;;;;;;;;;4967498;28;20080;-68
2024/01/11 06:13:02;;;;;;;40.17;16.60;;;;;;;;;;4966822;28;20054;-68
2024/01/11 06:15:29;;;;;;;38.38;16.92;;;;;;;;;;4971598;28;20486;-67
2024/01/11 06:17:57;;;;;;;41.03;17.13;;;;;;;;;;4969744;28;20065;-68
2024/01/11 06:20:24;;;;;;;47.20;16.58;;;;;;;;;;4971073;28;20130;-69
2024/01/11 06:22:51;;;;;;;41.58;18.20;;;;;;;;;;4969154;28;20058;-70
2024/01/11 06:25:20;;;;;;;41.83;17.10;;;;;;;;;;4970221;28;20050;-68
2024/01/11 06:27:48;;;;;;;42.38;16.98;;;;;;;;;;4970105;28;20487;-68
2024/01/11 06:30:16;;;;;;;40.63;16.45;;;;;;;;;;4965707;28;20065;-68
2024/01/11 06:32:43;;;;;;;42.65;17.55;;;;;;;;;;4970066;28;20483;-70
2024/01/11 06:35:10;;;;;;;44.75;18.75;;;;;;;;;;4968887;28;20054;-66
2024/01/11 06:37:37;;;;;;;42.63;17.30;;;;;;;;;;4966033;28;20046;-67
2024/01/11 06:40:07;;;;;;;40.65;16.67;;;;;;;;;;4969166;28;20051;-66
2024/01/11 06:42:36;;;;;;;39.40;16.77;;;;;;;;;;4961910;28;20051;-67
2024/01/11 06:45:04;;;;;;;44.47;17.20;;;;;;;;;;4968521;28;20431;-69
2024/01/11 06:47:31;;;;;;;42.17;17.40;;;;;;;;;;4964052;28;20121;-67
2024/01/11 06:49:59;;;;;;;40.75;17.35;;;;;;;;;;4959949;28;20142;-66
2024/01/11 06:52:26;;;;;;;38.22;16.63;;;;;;;;;;4964977;28;20051;-68
2024/01/11 06:54:54;;;;;;;41.10;17.60;;;;;;;;;;4961547;28;20051;-67
2024/01/11 06:57:21;;;;;;;39.05;17.15;;;;;;;;;;4963521;28;20046;-67
2024/01/11 06:59:50;;;;;;;40.90;17.65;;;;;;;;;;4962728;28;20050;-67
2024/01/11 07:02:17;;;;;;;40.42;18.15;;;;;;;;;;4965373;28;20055;-67
2024/01/11 07:04:45;;;;;;;42.10;17.58;;;;;;;;;;4968256;28;20054;-67
2024/01/11 07:07:13;;;;;;;40.50;16.75;;;;;;;;;;4964859;28;20122;-67
2024/01/11 07:09:40;;;;;;;42.60;17.65;;;;;;;;;;4969711;28;20054;-68
2024/01/11 07:12:07;;;;;;;42.38;18.55;;;;;;;;;;4964884;28;20058;-68
2024/01/11 07:14:35;;;;;;;40.53;16.45;;;;;;;;;;4968495;28;20447;-66
2024/01/11 07:17:03;;;;;;;42.17;17.23;;;;;;;;;;4968972;28;20046;-67
2024/01/11 07:19:31;;;;;;;39.97;16.55;;;;;;;;;;4970739;28;20046;-66
2024/01/11 07:21:58;;;;;;;41.13;16.73;;;;;;;;;;4963846;28;20063;-67
2024/01/11 07:24:26;;;;;;;39.88;16.70;;;;;;;;;;4970866;28;20081;-67
2024/01/11 07:26:53;;;;;;;40.95;17.00;;;;;;;;;;4968620;28;20497;-67
2024/01/11 07:29:20;;;;;;;39.10;16.95;;;;;;;;;;4968485;28;20102;-68
2024/01/11 07:31:48;;;;;;;40.70;16.77;;;;;;;;;;4972058;28;20054;-67
2024/01/11 07:34:17;;;;;;;39.90;16.65;;;;;;;;;;4971557;28;20053;-66
2024/01/11 07:36:44;;;;;;;42.72;15.98;;;;;;;;;;4968933;28;20077;-68
2024/01/11 07:39:12;;;;;;;37.47;16.08;;;;;;;;;;4970302;28;20047;-67
2024/01/11 07:41:39;;;;;;;39.30;16.45;;;;;;;;;;4966068;28;20047;-67
2024/01/11 07:44:06;;;;;;;39.00;16.52;;;;;;;;;;4969334;28;20054;-67
2024/01/11 07:46:33;;;;;;;38.85;15.95;;;;;;;;;;4962433;28;20533;-67
2024/01/11 07:49:01;;;;;;;39.25;16.23;;;;;;;;;;4967047;28;20129;-66
2024/01/11 07:51:30;;;;;;;35.85;15.70;;;;;;;;;;4972581;28;20047;-66
2024/01/11 07:53:57;;;;;;;37.65;16.25;;;;;;;;;;4961314;28;20054;-69
2024/01/11 07:56:24;;;;;;;34.97;15.95;;;;;;;;;;4955743;28;20047;-67
2024/01/11 07:58:52;;;;;;;37.13;16.52;;;;;;;;;;4963708;28;20069;-69
2024/01/11 08:01:19;;;;;;;37.15;16.08;;;;;;;;;;4968463;28;20519;-67
2024/01/11 08:03:47;;;;;;;36.97;16.30;;;;;;;;;;4969345;28;20140;-66
2024/01/11 08:06:14;;;;;;;40.78;16.67;;;;;;;;;;4968987;28;20126;-67
2024/01/11 08:08:44;;;;;;;35.67;15.48;;;;;;;;;;4968093;28;20054;-67
2024/01/11 08:11:12;;;;;;;34.55;15.60;;;;;;;;;;4968375;28;20049;-67
2024/01/11 08:13:39;;;;;;;33.30;15.45;;;;;;;;;;4969925;28;20042;-67
2024/01/11 08:16:09;;;;;;;39.28;17.23;;;;;;;;;;4963555;28;20140;-67
2024/01/11 08:18:36;;;;;;;36.17;15.52;;;;;;;;;;4968058;28;20043;-67
2024/01/11 08:21:06;;;;;;;37.53;15.73;;;;;;;;;;4961107;28;20059;-67
2024/01/11 08:23:33;;;;;;;40.97;16.15;;;;;;;;;;4967407;28;20410;-68
2024/01/11 08:26:03;;;;;;;33.97;15.38;;;;;;;;;;4962495;28;20061;-67
2024/01/11 08:28:30;;;;;;;34.40;15.57;;;;;;;;;;4965169;28;20050;-67
2024/01/11 08:30:58;;;;;;;31.17;14.60;;;;;;;;;;4968416;28;20054;-67
2024/01/11 08:33:25;;;;;;;36.55;15.48;;;;;;;;;;4968227;28;20507;-68
2024/01/11 08:35:52;;;;;;;38.35;15.77;;;;;;;;;;4968825;28;20080;-67
2024/01/11 08:38:19;;;;;;;39.30;16.10;;;;;;;;;;4967870;28;20061;-67
2024/01/11 08:40:48;;;;;;;32.50;14.73;;;;;;;;;;4968682;28;20066;-67
2024/01/11 08:43:17;;;;;;;34.50;15.15;;;;;;;;;;4968612;28;20069;-68
2024/01/11 08:45:44;;;;;;;35.70;15.93;;;;;;;;;;4968759;28;20071;-67
2024/01/11 08:48:11;;;;;;;36.40;15.43;;;;;;;;;;4967078;28;20133;-68
2024/01/11 08:50:39;;;;;;;31.65;14.57;;;;;;;;;;4968468;28;20082;-67
2024/01/11 08:53:06;;;;;;;34.28;15.15;;;;;;;;;;4967890;28;20081;-67
2024/01/11 08:55:33;;;;;;;34.60;15.45;;;;;;;;;;4969345;28;20050;-67
2024/01/11 08:58:00;;;;;;;36.05;14.40;;;;;;;;;;4968114;28;20448;-67
2024/01/11 09:00:29;;;;;;;35.65;15.07;;;;;;;;;;4970672;28;20097;-67
2024/01/11 09:02:59;;;;;;;37.53;14.68;;;;;;;;;;4972377;28;20482;-67
2024/01/11 09:05:27;;;;;;;34.05;15.07;;;;;;;;;;4970759;28;20070;-67
2024/01/11 09:07:54;;;;;;;33.70;15.88;;;;;;;;;;4971267;28;20064;-67
2024/01/11 09:10:21;;;;;;;36.10;15.88;;;;;;;;;;4973045;28;20081;-67
2024/01/11 09:12:48;;;;;;;35.15;15.88;;;;;;;;;;4971420;28;20055;-66
2024/01/11 09:15:16;;;;;;;38.20;15.18;;;;;;;;;;4972685;28;20054;-66
2024/01/11 09:17:45;;;;;;;32.97;14.80;;;;;;;;;;4970940;28;20054;-70
2024/01/11 09:20:14;;;;;;;35.55;15.05;;;;;;;;;;4972392;28;20051;-67
2024/01/11 09:22:41;;;;;;;32.83;15.10;;;;;;;;;;4968485;28;20046;-67
2024/01/11 09:25:09;;;;;;;32.80;15.23;;;;;;;;;;4971239;28;20051;-67
2024/01/11 09:27:36;;;;;;;31.27;14.70;;;;;;;;;;4969697;28;20051;-68
2024/01/11 09:30:04;;;;;;;30.92;14.90;;;;;;;;;;4969489;28;20113;-67
2024/01/11 09:32:31;;;;;;;32.08;14.77;;;;;;;;;;4973077;28;20419;-66
2024/01/11 09:35:00;;;;;;;32.78;14.65;;;;;;;;;;4969084;28;20043;-67
2024/01/11 09:37:27;;;;;;;29.60;13.77;;;;;;;;;;4962484;28;20051;-66
2024/01/11 09:39:55;;;;;;;28.50;14.88;;;;;;;;;;4969458;28;20391;-67
2024/01/11 09:42:22;;;;;;;29.85;14.23;;;;;;;;;;4972827;28;20046;-66
2024/01/11 09:44:50;;;;;;;33.30;15.10;;;;;;;;;;4971076;28;20061;-67
2024/01/11 09:47:18;;;;;;;35.33;15.32;;;;;;;;;;4972083;28;20082;-67
2024/01/11 09:49:46;;;;;;;34.83;15.52;;;;;;;;;;4969687;28;20046;-67
2024/01/11 09:52:17;;;;;;;33.88;15.30;;;;;;;;;;4963861;28;20047;-67
2024/01/11 09:54:45;;;;;;;36.28;14.52;;;;;;;;;;4968140;28;20051;-67
2024/01/11 09:57:12;;;;;;;35.00;15.30;;;;;;;;;;4969706;28;20054;-67
2024/01/11 09:59:40;;;;;;;32.45;14.43;;;;;;;;;;4969077;28;20109;-67
2024/01/11 10:02:09;;;;;;;32.53;14.02;;;;;;;;;;4968426;28;20042;-66
2024/01/11 10:04:37;;;;;;;31.98;14.18;;;;;;;;;;4966068;28;20072;-69
2024/01/11 10:07:06;;;;;;;30.70;13.80;;;;;;;;;;4964792;28;20057;-67
2024/01/11 10:09:35;;;;;;;32.30;14.52;;;;;;;;;;4966060;28;20082;-67
2024/01/11 10:12:03;;;;;;;35.85;15.27;;;;;;;;;;4970867;28;20050;-67
2024/01/11 10:14:31;;;;;;;30.83;14.38;;;;;;;;;;4966560;28;20057;-67
2024/01/11 10:16:58;;;;;;;31.42;15.02;;;;;;;;;;4969773;28;20059;-68
2024/01/11 10:19:25;;;;;;;30.33;13.77;;;;;;;;;;4970181;28;20050;-67
2024/01/11 10:21:53;;;;;;;31.27;14.40;;;;;;;;;;4970835;28;20058;-67
2024/01/11 10:24:23;;;;;;;30.95;14.35;;;;;;;;;;4971405;28;20498;-67
2024/01/11 10:26:51;;;;;;;31.45;13.70;;;;;;;;;;4970140;28;20059;-67
2024/01/11 10:29:18;;;;;;;29.88;14.35;;;;;;;;;;4970488;28;20062;-68
2024/01/11 10:31:46;;;;;;;31.83;13.77;;;;;;;;;;4970601;28;20054;-67
2024/01/11 10:34:13;;;;;;;26.00;12.63;;;;;;;;;;4971394;28;20051;-67
2024/01/11 10:36:40;;;;;;;29.90;13.70;;;;;;;;;;4969292;28;20057;-67
2024/01/11 10:39:09;;;;;;;27.83;13.43;;;;;;;;;;4969422;28;20062;-66
2024/01/11 10:41:40;;;;;;;29.20;13.48;;;;;;;;;;4969982;28;20050;-69
2024/01/11 10:44:14;;;;;;;30.20;11.90;;;;;;;;;;4968381;28;20051;-67
2024/01/11 10:46:41;;;;;;;24.80;12.15;;;;;;;;;;4969552;28;20440;-68
2024/01/11 10:49:09;;;;;;;27.60;11.57;;;;;;;;;;4967254;28;20054;-67
2024/01/11 10:51:36;;;;;;;26.80;11.95;;;;;;;;;;4965533;28;20066;-68
2024/01/11 10:54:04;;;;;;;35.22;13.35;;;;;;;;;;4968228;28;20058;-66
2024/01/11 10:56:32;;;;;;;23.15;10.20;;;;;;;;;;4971032;28;20043;-67
2024/01/11 10:59:00;;;;;;;32.53;10.63;;;;;;;;;;4969492;28;20055;-67
2024/01/11 11:01:29;;;;;;;26.83;11.40;;;;;;;;;;4964137;28;20050;-67
2024/01/11 11:03:57;;;;;;;24.30;11.73;;;;;;;;;;4970261;28;20054;-67
2024/01/11 11:06:25;;;;;;;23.83;10.93;;;;;;;;;;4970837;28;20066;-66
2024/01/11 11:08:53;;;;;;;25.10;10.40;;;;;;;;;;4970793;28;20537;-67
2024/01/11 11:11:21;;;;;;;21.30;9.27;;;;;;;;;;4970436;28;20549;-67
2024/01/11 11:13:49;;;;;;;22.40;8.70;;;;;;;;;;4968908;28;20058;-66
2024/01/11 11:16:16;;;;;;;29.23;9.07;;;;;;;;;;4968513;28;20054;-67
2024/01/11 11:18:45;;;;;;;21.27;9.30;;;;;;;;;;4968389;28;20058;-67
2024/01/11 11:21:13;;;;;;;21.02;8.88;;;;;;;;;;4967588;28;20417;-67
2024/01/11 11:23:40;;;;;;;20.95;9.23;;;;;;;;;;4967886;28;20486;-67
2024/01/11 11:26:08;;;;;;;21.48;9.15;;;;;;;;;;4970198;28;20081;-66
2024/01/11 11:28:36;;;;;;;20.83;9.18;;;;;;;;;;4966743;28;20089;-68
2024/01/11 11:31:04;;;;;;;22.63;8.40;;;;;;;;;;4968786;28;20066;-66
2024/01/11 11:33:31;;;;;;;21.75;8.73;;;;;;;;;;4968807;28;20065;-67
2024/01/11 11:36:00;;;;;;;21.80;9.10;;;;;;;;;;4969743;28;20109;-67
2024/01/11 11:38:28;;;;;;;18.80;6.63;;;;;;;;;;4969395;28;20050;-66
2024/01/11 11:40:56;;;;;;;20.13;6.22;;;;;;;;;;4968871;28;20106;-67
2024/01/11 11:43:24;;;;;;;16.98;5.68;;;;;;;;;;4968675;28;20054;-66
2024/01/11 11:45:52;;;;;;;15.07;4.80;;;;;;;;;;4970164;28;20532;-66
2024/01/11 11:48:38;;;;;;;14.18;4.00;;;;;;;;;;4968142;28;20406;-67
2024/01/11 11:51:09;;;;;;;11.23;3.97;;;;;;;;;;4963385;28;20055;-67
2024/01/11 11:53:37;;;;;;;19.10;3.58;;;;;;;;;;4969803;28;20549;-67
2024/01/11 11:56:05;;;;;;;17.65;4.22;;;;;;;;;;4968082;28;20051;-69
2024/01/11 11:58:32;;;;;;;17.00;3.20;;;;;;;;;;4970328;28;20046;-69
2024/01/11 12:01:00;;;;;;;10.70;2.60;;;;;;;;;;4966600;28;20051;-66
2024/01/11 12:03:30;;;;;;;17.17;3.30;;;;;;;;;;4969009;28;20051;-66
2024/01/11 12:05:57;;;;;;;15.13;2.75;;;;;;;;;;4966243;28;20059;-66
2024/01/11 12:08:26;;;;;;;16.60;2.58;;;;;;;;;;4969988;28;20057;-67
2024/01/11 12:10:54;;;;;;;16.75;2.60;;;;;;;;;;4964463;28;20062;-66
2024/01/11 12:13:21;;;;;;;26.40;3.25;;;;;;;;;;4962435;28;20050;-67
2024/01/11 12:15:48;;;;;;;30.55;2.85;;;;;;;;;;4965370;28;20054;-66
2024/01/11 12:18:15;;;;;;;26.95;2.80;;;;;;;;;;4967053;28;20491;-66
2024/01/11 12:20:43;;;;;;;27.20;3.33;;;;;;;;;;4963543;28;20054;-66
2024/01/11 12:23:10;;;;;;;37.58;4.00;;;;;;;;;;4965052;28;20061;-66
2024/01/11 12:25:38;;;;;;;36.35;3.05;;;;;;;;;;4955239;28;20059;-66
2024/01/11 12:28:07;;;;;;;24.58;3.20;;;;;;;;;;4963456;28;20059;-66
2024/01/11 12:30:35;;;;;;;42.55;3.35;;;;;;;;;;4958396;28;20135;-67
2024/01/11 12:33:02;;;;;;;29.75;3.30;;;;;;;;;;4968834;28;20042;-67
2024/01/11 12:35:30;;;;;;;27.92;2.75;;;;;;;;;;4970902;28;20055;-66
2024/01/11 12:37:57;;;;;;;33.97;3.35;;;;;;;;;;4972362;28;20047;-67
2024/01/11 12:40:24;;;;;;;47.15;4.13;;;;;;;;;;4973586;28;20062;-66
2024/01/11 12:42:53;;;;;;;38.05;3.03;;;;;;;;;;4972434;28;20429;-66
2024/01/11 12:45:21;;;;;;;36.53;3.45;;;;;;;;;;4973270;28;20086;-66
2024/01/11 12:47:48;;;;;;;30.45;3.38;;;;;;;;;;4970271;28;20138;-67
2024/01/11 12:50:15;;;;;;;34.80;3.58;;;;;;;;;;4973178;28;20078;-66
2024/01/11 12:52:43;;;;;;;28.70;2.90;;;;;;;;;;4971810;28;20450;-70
2024/01/11 12:55:19;;;;;;;28.58;3.03;;;;;;;;;;4973461;28;20055;-66
2024/01/11 12:57:46;;;;;;;34.13;3.55;;;;;;;;;;4971635;28;20055;-66
2024/01/11 13:00:16;;;;;;;32.35;3.75;;;;;;;;;;4972098;28;20059;-66
2024/01/11 13:02:44;;;;;;;29.75;2.95;;;;;;;;;;4971607;28;20043;-68
2024/01/11 13:05:11;;;;;;;33.00;3.67;;;;;;;;;;4971637;28;20089;-65
2024/01/11 13:07:39;;;;;;;33.28;3.40;;;;;;;;;;4972339;28;20047;-66
2024/01/11 13:10:06;;;;;;;30.42;3.47;;;;;;;;;;4972507;28;20058;-67
2024/01/11 13:12:34;;;;;;;35.55;4.65;;;;;;;;;;4971445;28;20051;-66
2024/01/11 13:15:01;;;;;;;35.63;3.30;;;;;;;;;;4970053;28;20478;-66
2024/01/11 13:17:30;;;;;;;33.53;3.28;;;;;;;;;;4969026;28;20425;-68
2024/01/11 13:19:59;;;;;;;31.25;3.60;;;;;;;;;;4969400;28;20077;-67
2024/01/11 13:22:27;;;;;;;34.95;3.42;;;;;;;;;;4967499;28;20047;-66
2024/01/11 13:24:54;;;;;;;34.75;4.35;;;;;;;;;;4971505;28;20133;-67
2024/01/11 13:27:21;;;;;;;29.55;3.78;;;;;;;;;;4972048;28;20058;-66
2024/01/11 13:29:48;;;;;;;35.78;3.33;;;;;;;;;;4969529;28;20510;-66
2024/01/11 13:32:16;;;;;;;35.30;4.28;;;;;;;;;;4971926;28;20047;-66
2024/01/11 13:34:45;;;;;;;33.72;3.28;;;;;;;;;;4970614;28;20077;-70
2024/01/11 13:37:13;;;;;;;29.10;3.22;;;;;;;;;;4971875;28;20054;-66
2024/01/11 13:39:40;;;;;;;36.38;3.35;;;;;;;;;;4972554;28;20059;-66
2024/01/11 13:42:09;;;;;;;40.05;3.38;;;;;;;;;;4972288;28;20046;-66
2024/01/11 13:44:36;;;;;;;33.03;3.65;;;;;;;;;;4971203;28;20047;-68
2024/01/11 13:47:04;;;;;;;31.70;3.28;;;;;;;;;;4970291;28;20054;-66
2024/01/11 13:49:31;;;;;;;28.95;3.40;;;;;;;;;;4971214;28;20534;-66
2024/01/11 13:52:00;;;;;;;32.67;3.40;;;;;;;;;;4971120;28;20109;-67
2024/01/11 13:54:27;;;;;;;32.38;3.22;;;;;;;;;;4971302;28;20047;-65
2024/01/11 13:56:55;;;;;;;34.05;4.18;;;;;;;;;;4971451;28;20051;-66
2024/01/11 13:59:22;;;;;;;41.38;4.63;;;;;;;;;;4969652;28;20090;-67
2024/01/11 14:01:49;;;;;;;39.20;3.45;;;;;;;;;;4971009;28;20050;-66
2024/01/11 14:04:17;;;;;;;36.20;3.90;;;;;;;;;;4971462;28;20057;-66
2024/01/11 14:06:44;;;;;;;31.45;4.20;;;;;;;;;;4964295;28;20043;-66
2024/01/11 14:09:12;;;;;;;37.72;5.45;;;;;;;;;;4968651;28;20062;-67
2024/01/11 14:11:40;;;;;;;31.63;2.88;;;;;;;;;;4970093;28;20058;-67
2024/01/11 14:14:07;;;;;;;27.02;2.97;;;;;;;;;;4966342;28;20068;-66
2024/01/11 14:16:34;;;;;;;20.55;2.80;;;;;;;;;;4971680;28;20062;-66
2024/01/11 14:19:02;;;;;;;41.28;4.15;;;;;;;;;;4966390;28;20102;-67
2024/01/11 14:21:29;;;;;;;34.10;3.60;;;;;;;;;;4966649;28;20055;-66
2024/01/11 14:23:56;;;;;;;27.15;2.80;;;;;;;;;;4970057;28;20050;-66